sensor_id;sensor_type;location;lat;lon;timestamp;pressure;altitude;pressure_sealevel;temperature;humidity
38718;BME280;24468;52.128;9.278;2023-12-07T00:00:17;100896.00;;;4.71;100.00
38718;BME280;24468;52.128;9.278;2023-12-07T00:02:43;100897.63;;;4.82;100.00
38718;BME280;24468;52.128;9.278;2023-12-07T00:05:08;100906.72;;;4.71;100.00
38718;BME280;24468;52.128;9.278;2023-12-07T00:07:34;100910.44;;;4.57;100.00
38718;BME280;24468;52.128;9.278;2023-12-07T00:09:59;100903.22;;;4.65;100.00
38718;BME280;24468;52.128;9.278;2023-12-07T00:12:25;100904.19;;;4.60;100.00
38718;BME280;24468;52.128;9.278;2023-12-07T00:14:50;100912.94;;;4.71;100.00
38718;BME280;24468;52.128;9.278;2023-12-07T00:17:16;100907.53;;;4.77;100.00
38718;BME280;24468;52.128;9.278;2023-12-07T00:19:41;100916.94;;;4.38;100.00
38718;BME280;24468;52.128;9.278;2023-12-07T00:22:07;100911.97;;;4.77;100.00
38718;BME280;24468;52.128;9.278;2023-12-07T00:24:32;100909.91;;;4.96;100.00
38718;BME280;24468;52.128;9.278;2023-12-07T00:26:58;100911.13;;;4.73;100.00
38718;BME280;24468;52.128;9.278;2023-12-07T00:29:23;100914.19;;;4.47;100.00
38718;BME280;24468;52.128;9.278;2023-12-07T00:31:49;100901.59;;;4.54;100.00
38718;BME280;24468;52.128;9.278;2023-12-07T00:34:15;100906.03;;;4.55;100.00
38718;BME280;24468;52.128;9.278;2023-12-07T00:36:42;100907.69;;;4.65;100.00
38718;BME280;24468;52.128;9.278;2023-12-07T00:39:08;100914.78;;;4.66;100.00
38718;BME280;24468;52.128;9.278;2023-12-07T00:41:34;100919.25;;;4.67;100.00
38718;BME280;24468;52.128;9.278;2023-12-07T00:43:59;100919.34;;;4.58;100.00
38718;BME280;24468;52.128;9.278;2023-12-07T00:46:25;100922.25;;;4.42;100.00
38718;BME280;24468;52.128;9.278;2023-12-07T00:48:50;100930.81;;;4.66;100.00
38718;BME280;24468;52.128;9.278;2023-12-07T00:51:16;100928.16;;;4.66;100.00
38718;BME280;24468;52.128;9.278;2023-12-07T00:53:41;100923.22;;;4.99;100.00
38718;BME280;24468;52.128;9.278;2023-12-07T00:56:07;100937.13;;;5.21;100.00
38718;BME280;24468;52.128;9.278;2023-12-07T00:58:33;100938.09;;;5.17;100.00
38718;BME280;24468;52.128;9.278;2023-12-07T01:00:58;100943.41;;;5.18;100.00
38718;BME280;24468;52.128;9.278;2023-12-07T01:03:24;100943.44;;;5.17;100.00
38718;BME280;24468;52.128;9.278;2023-12-07T01:05:50;100947.75;;;5.25;100.00
38718;BME280;24468;52.128;9.278;2023-12-07T01:08:16;100946.66;;;5.37;100.00
38718;BME280;24468;52.128;9.278;2023-12-07T01:10:41;100948.56;;;5.30;100.00
38718;BME280;24468;52.128;9.278;2023-12-07T01:13:06;100947.53;;;5.39;100.00
38718;BME280;24468;52.128;9.278;2023-12-07T01:15:32;100956.72;;;5.24;100.00
38718;BME280;24468;52.128;9.278;2023-12-07T01:17:57;100955.34;;;4.97;100.00
38718;BME280;24468;52.128;9.278;2023-12-07T01:20:23;100954.38;;;5.03;100.00
38718;BME280;24468;52.128;9.278;2023-12-07T01:22:48;100974.31;;;4.80;100.00
38718;BME280;24468;52.128;9.278;2023-12-07T01:25:14;100970.91;;;4.66;100.00
38718;BME280;24468;52.128;9.278;2023-12-07T01:27:45;100970.81;;;4.74;100.00
38718;BME280;24468;52.128;9.278;2023-12-07T01:30:10;100978.81;;;4.75;100.00
38718;BME280;24468;52.128;9.278;2023-12-07T01:32:36;100978.59;;;4.92;100.00
38718;BME280;24468;52.128;9.278;2023-12-07T01:35:02;100972.50;;;4.81;100.00
38718;BME280;24468;52.128;9.278;2023-12-07T01:37:27;100976.94;;;4.83;100.00
38718;BME280;24468;52.128;9.278;2023-12-07T01:39:54;100978.88;;;4.72;100.00
38718;BME280;24468;52.128;9.278;2023-12-07T01:42:20;100982.38;;;4.77;100.00
38718;BME280;24468;52.128;9.278;2023-12-07T01:44:45;100977.84;;;4.79;100.00
38718;BME280;24468;52.128;9.278;2023-12-07T01:47:11;100978.94;;;5.26;100.00
38718;BME280;24468;52.128;9.278;2023-12-07T01:49:37;100978.69;;;4.86;100.00
38718;BME280;24468;52.128;9.278;2023-12-07T01:52:04;100984.09;;;4.80;100.00
38718;BME280;24468;52.128;9.278;2023-12-07T01:54:30;100984.66;;;5.02;100.00
38718;BME280;24468;52.128;9.278;2023-12-07T01:56:56;100983.59;;;5.15;100.00
38718;BME280;24468;52.128;9.278;2023-12-07T01:59:23;100980.13;;;5.07;100.00
38718;BME280;24468;52.128;9.278;2023-12-07T02:01:49;100984.84;;;4.91;100.00
38718;BME280;24468;52.128;9.278;2023-12-07T02:04:16;100983.81;;;5.00;100.00
38718;BME280;24468;52.128;9.278;2023-12-07T02:06:42;100985.59;;;5.01;100.00
38718;BME280;24468;52.128;9.278;2023-12-07T02:09:07;100983.78;;;5.01;100.00
38718;BME280;24468;52.128;9.278;2023-12-07T02:11:34;100986.34;;;5.10;100.00
38718;BME280;24468;52.128;9.278;2023-12-07T02:13:59;100997.28;;;4.92;100.00
38718;BME280;24468;52.128;9.278;2023-12-07T02:17:16;100997.44;;;4.81;100.00
38718;BME280;24468;52.128;9.278;2023-12-07T02:22:55;101002.00;;;4.72;100.00
38718;BME280;24468;52.128;9.278;2023-12-07T02:28:46;100996.56;;;4.79;100.00
38718;BME280;24468;52.128;9.278;2023-12-07T02:31:11;100996.13;;;5.10;100.00
38718;BME280;24468;52.128;9.278;2023-12-07T02:33:37;100999.56;;;5.18;100.00
38718;BME280;24468;52.128;9.278;2023-12-07T02:36:03;100996.75;;;5.30;100.00
38718;BME280;24468;52.128;9.278;2023-12-07T02:38:29;100998.53;;;5.28;100.00
38718;BME280;24468;52.128;9.278;2023-12-07T02:40:56;101001.91;;;4.79;100.00
38718;BME280;24468;52.128;9.278;2023-12-07T02:43:22;100999.78;;;5.07;100.00
38718;BME280;24468;52.128;9.278;2023-12-07T02:45:48;101000.06;;;4.84;100.00
38718;BME280;24468;52.128;9.278;2023-12-07T02:48:14;101000.34;;;5.28;100.00
38718;BME280;24468;52.128;9.278;2023-12-07T02:50:40;100995.97;;;5.22;100.00
38718;BME280;24468;52.128;9.278;2023-12-07T02:53:05;101000.91;;;4.88;100.00
38718;BME280;24468;52.128;9.278;2023-12-07T02:55:31;100999.72;;;5.09;100.00
38718;BME280;24468;52.128;9.278;2023-12-07T02:57:56;101011.00;;;5.31;100.00
38718;BME280;24468;52.128;9.278;2023-12-07T03:00:22;101003.56;;;5.50;100.00
38718;BME280;24468;52.128;9.278;2023-12-07T03:02:47;101014.69;;;5.22;100.00
38718;BME280;24468;52.128;9.278;2023-12-07T03:05:13;101007.59;;;5.18;100.00
38718;BME280;24468;52.128;9.278;2023-12-07T03:07:39;101018.63;;;4.95;100.00
38718;BME280;24468;52.128;9.278;2023-12-07T03:10:05;101026.66;;;4.94;100.00
38718;BME280;24468;52.128;9.278;2023-12-07T03:12:31;101014.94;;;5.05;100.00
38718;BME280;24468;52.128;9.278;2023-12-07T03:14:56;101017.16;;;5.38;100.00
38718;BME280;24468;52.128;9.278;2023-12-07T03:17:22;101019.22;;;5.17;100.00
38718;BME280;24468;52.128;9.278;2023-12-07T03:19:47;101026.94;;;5.39;100.00
38718;BME280;24468;52.128;9.278;2023-12-07T03:22:13;101032.22;;;5.42;100.00
38718;BME280;24468;52.128;9.278;2023-12-07T03:24:40;101026.47;;;5.10;100.00
38718;BME280;24468;52.128;9.278;2023-12-07T03:27:06;101029.34;;;4.94;100.00
38718;BME280;24468;52.128;9.278;2023-12-07T03:29:32;101034.72;;;4.90;100.00
38718;BME280;24468;52.128;9.278;2023-12-07T03:31:57;101023.19;;;4.88;100.00
38718;BME280;24468;52.128;9.278;2023-12-07T03:34:24;101026.31;;;5.18;100.00
38718;BME280;24468;52.128;9.278;2023-12-07T03:36:50;101026.88;;;5.40;100.00
38718;BME280;24468;52.128;9.278;2023-12-07T03:39:17;101030.44;;;4.79;100.00
38718;BME280;24468;52.128;9.278;2023-12-07T03:41:48;101033.47;;;5.18;100.00
38718;BME280;24468;52.128;9.278;2023-12-07T03:44:14;101037.41;;;5.52;100.00
38718;BME280;24468;52.128;9.278;2023-12-07T03:46:40;101036.66;;;5.46;100.00
38718;BME280;24468;52.128;9.278;2023-12-07T03:49:06;101033.44;;;5.21;100.00
38718;BME280;24468;52.128;9.278;2023-12-07T03:51:31;101043.84;;;5.41;100.00
38718;BME280;24468;52.128;9.278;2023-12-07T03:53:57;101055.44;;;5.40;100.00
38718;BME280;24468;52.128;9.278;2023-12-07T03:56:27;101042.25;;;5.27;100.00
38718;BME280;24468;52.128;9.278;2023-12-07T03:58:53;101040.50;;;5.25;100.00
38718;BME280;24468;52.128;9.278;2023-12-07T04:01:27;101042.84;;;5.48;100.00
38718;BME280;24468;52.128;9.278;2023-12-07T04:03:55;101038.34;;;5.50;100.00
38718;BME280;24468;52.128;9.278;2023-12-07T04:06:24;101053.03;;;5.23;100.00
38718;BME280;24468;52.128;9.278;2023-12-07T04:08:50;101045.19;;;5.09;100.00
38718;BME280;24468;52.128;9.278;2023-12-07T04:11:16;101043.16;;;5.28;100.00
38718;BME280;24468;52.128;9.278;2023-12-07T04:13:43;101043.91;;;5.34;100.00
38718;BME280;24468;52.128;9.278;2023-12-07T04:16:09;101041.94;;;5.49;100.00
38718;BME280;24468;52.128;9.278;2023-12-07T04:18:36;101049.53;;;5.18;100.00
38718;BME280;24468;52.128;9.278;2023-12-07T04:21:02;101053.16;;;5.13;100.00
38718;BME280;24468;52.128;9.278;2023-12-07T04:23:28;101049.97;;;5.47;100.00
38718;BME280;24468;52.128;9.278;2023-12-07T04:25:53;101047.66;;;5.24;100.00
38718;BME280;24468;52.128;9.278;2023-12-07T04:28:19;101053.69;;;5.37;100.00
38718;BME280;24468;52.128;9.278;2023-12-07T04:30:45;101050.97;;;5.43;100.00
38718;BME280;24468;52.128;9.278;2023-12-07T04:33:10;101052.59;;;5.50;100.00
38718;BME280;24468;52.128;9.278;2023-12-07T04:35:36;101051.03;;;5.37;100.00
38718;BME280;24468;52.128;9.278;2023-12-07T04:38:02;101053.53;;;5.49;100.00
38718;BME280;24468;52.128;9.278;2023-12-07T04:40:27;101047.66;;;5.24;100.00
38718;BME280;24468;52.128;9.278;2023-12-07T04:42:53;101056.53;;;5.26;100.00
38718;BME280;24468;52.128;9.278;2023-12-07T04:45:19;101055.53;;;5.33;100.00
38718;BME280;24468;52.128;9.278;2023-12-07T04:47:45;101058.72;;;5.58;100.00
38718;BME280;24468;52.128;9.278;2023-12-07T04:50:11;101059.69;;;5.54;100.00
38718;BME280;24468;52.128;9.278;2023-12-07T04:52:36;101053.53;;;5.48;100.00
38718;BME280;24468;52.128;9.278;2023-12-07T04:55:02;101049.09;;;5.47;100.00
38718;BME280;24468;52.128;9.278;2023-12-07T04:57:28;101046.31;;;5.53;100.00
38718;BME280;24468;52.128;9.278;2023-12-07T04:59:53;101053.44;;;5.55;100.00
38718;BME280;24468;52.128;9.278;2023-12-07T05:02:19;101052.69;;;5.46;100.00
38718;BME280;24468;52.128;9.278;2023-12-07T05:04:45;101051.00;;;5.39;100.00
38718;BME280;24468;52.128;9.278;2023-12-07T05:07:12;101049.97;;;5.47;100.00
38718;BME280;24468;52.128;9.278;2023-12-07T05:09:38;101048.44;;;5.32;100.00
38718;BME280;24468;52.128;9.278;2023-12-07T05:12:05;101063.00;;;5.10;100.00
38718;BME280;24468;52.128;9.278;2023-12-07T05:14:31;101061.00;;;5.26;100.00
38718;BME280;24468;52.128;9.278;2023-12-07T05:16:57;101051.84;;;5.44;100.00
38718;BME280;24468;52.128;9.278;2023-12-07T05:19:24;101055.69;;;5.24;100.00
38718;BME280;24468;52.128;9.278;2023-12-07T05:21:50;101053.75;;;5.34;100.00
38718;BME280;24468;52.128;9.278;2023-12-07T05:24:16;101056.31;;;5.43;100.00
38718;BME280;24468;52.128;9.278;2023-12-07T05:26:42;101059.09;;;4.66;100.00
38718;BME280;24468;52.128;9.278;2023-12-07T05:29:08;101057.44;;;4.57;100.00
38718;BME280;24468;52.128;9.278;2023-12-07T05:31:35;101063.53;;;4.70;100.00
38718;BME280;24468;52.128;9.278;2023-12-07T05:34:02;101062.53;;;4.79;100.00
38718;BME280;24468;52.128;9.278;2023-12-07T05:36:27;101070.50;;;4.82;100.00
38718;BME280;24468;52.128;9.278;2023-12-07T05:38:56;101066.28;;;5.30;100.00
38718;BME280;24468;52.128;9.278;2023-12-07T05:41:21;101066.50;;;5.15;100.00
38718;BME280;24468;52.128;9.278;2023-12-07T05:43:47;101064.75;;;5.12;100.00
38718;BME280;24468;52.128;9.278;2023-12-07T05:46:13;101064.63;;;5.22;100.00
38718;BME280;24468;52.128;9.278;2023-12-07T05:48:39;101059.91;;;5.41;100.00
38718;BME280;24468;52.128;9.278;2023-12-07T05:51:05;101070.53;;;5.45;100.00
38718;BME280;24468;52.128;9.278;2023-12-07T05:53:30;101067.06;;;5.39;100.00
38718;BME280;24468;52.128;9.278;2023-12-07T05:55:59;101074.22;;;5.38;100.00
38718;BME280;24468;52.128;9.278;2023-12-07T05:58:24;101075.44;;;5.14;100.00
38718;BME280;24468;52.128;9.278;2023-12-07T06:00:50;101079.47;;;5.43;100.00
38718;BME280;24468;52.128;9.278;2023-12-07T06:03:16;101075.81;;;5.51;100.00
38718;BME280;24468;52.128;9.278;2023-12-07T06:05:41;101075.72;;;5.56;100.00
38718;BME280;24468;52.128;9.278;2023-12-07T06:08:07;101077.56;;;5.54;100.00
38718;BME280;24468;52.128;9.278;2023-12-07T06:10:33;101074.84;;;5.55;100.00
38718;BME280;24468;52.128;9.278;2023-12-07T06:12:59;101081.00;;;5.61;100.00
38718;BME280;24468;52.128;9.278;2023-12-07T06:15:26;101073.16;;;5.48;100.00
38718;BME280;24468;52.128;9.278;2023-12-07T06:17:53;101075.88;;;5.45;100.00
38718;BME280;24468;52.128;9.278;2023-12-07T06:20:19;101081.22;;;5.47;100.00
38718;BME280;24468;52.128;9.278;2023-12-07T06:22:45;101073.13;;;5.50;100.00
38718;BME280;24468;52.128;9.278;2023-12-07T06:25:11;101076.69;;;5.50;100.00
38718;BME280;24468;52.128;9.278;2023-12-07T06:27:37;101074.00;;;5.52;100.00
38718;BME280;24468;52.128;9.278;2023-12-07T06:30:04;101082.91;;;5.54;100.00
38718;BME280;24468;52.128;9.278;2023-12-07T06:32:34;101084.56;;;5.61;100.00
38718;BME280;24468;52.128;9.278;2023-12-07T06:35:00;101089.97;;;5.58;100.00
38718;BME280;24468;52.128;9.278;2023-12-07T06:37:26;101088.16;;;5.58;100.00
38718;BME280;24468;52.128;9.278;2023-12-07T06:39:51;101093.50;;;5.60;100.00
38718;BME280;24468;52.128;9.278;2023-12-07T06:42:17;101094.34;;;5.62;100.00
38718;BME280;24468;52.128;9.278;2023-12-07T06:44:49;101099.69;;;5.65;100.00
38718;BME280;24468;52.128;9.278;2023-12-07T06:47:15;101097.22;;;5.48;100.00
38718;BME280;24468;52.128;9.278;2023-12-07T06:49:41;101094.56;;;5.50;100.00
38718;BME280;24468;52.128;9.278;2023-12-07T06:52:07;101102.19;;;5.16;100.00
38718;BME280;24468;52.128;9.278;2023-12-07T06:54:33;101100.25;;;5.27;100.00
38718;BME280;24468;52.128;9.278;2023-12-07T06:56:59;101095.78;;;5.27;100.00
38718;BME280;24468;52.128;9.278;2023-12-07T06:59:24;101099.63;;;5.05;100.00
38718;BME280;24468;52.128;9.278;2023-12-07T07:01:50;101097.53;;;5.30;100.00
38718;BME280;24468;52.128;9.278;2023-12-07T07:04:15;101098.34;;;5.35;100.00
38718;BME280;24468;52.128;9.278;2023-12-07T07:06:41;101103.19;;;5.04;100.00
38718;BME280;24468;52.128;9.278;2023-12-07T07:09:07;101108.50;;;5.07;100.00
38718;BME280;24468;52.128;9.278;2023-12-07T07:11:33;101116.94;;;4.75;100.00
38718;BME280;24468;52.128;9.278;2023-12-07T07:14:00;101109.63;;;4.89;100.00
38718;BME280;24468;52.128;9.278;2023-12-07T07:16:25;101115.91;;;4.86;100.00
38718;BME280;24468;52.128;9.278;2023-12-07T07:18:51;101115.19;;;4.72;100.00
38718;BME280;24468;52.128;9.278;2023-12-07T07:21:16;101119.06;;;5.19;100.00
38718;BME280;24468;52.128;9.278;2023-12-07T07:23:42;101114.03;;;4.93;100.00
38718;BME280;24468;52.128;9.278;2023-12-07T07:26:07;101125.25;;;4.44;100.00
38718;BME280;24468;52.128;9.278;2023-12-07T07:28:33;101122.50;;;4.52;100.00
38718;BME280;24468;52.128;9.278;2023-12-07T07:31:00;101129.50;;;4.63;100.00
38718;BME280;24468;52.128;9.278;2023-12-07T07:33:25;101125.25;;;4.47;100.00
38718;BME280;24468;52.128;9.278;2023-12-07T07:35:51;101121.38;;;4.77;100.00
38718;BME280;24468;52.128;9.278;2023-12-07T07:38:16;101124.91;;;4.78;100.00
38718;BME280;24468;52.128;9.278;2023-12-07T07:40:42;101127.63;;;4.75;100.00
38718;BME280;24468;52.128;9.278;2023-12-07T07:43:07;101136.63;;;4.63;100.00
38718;BME280;24468;52.128;9.278;2023-12-07T07:45:33;101134.53;;;4.94;100.00
38718;BME280;24468;52.128;9.278;2023-12-07T07:47:58;101135.19;;;5.11;100.00
38718;BME280;24468;52.128;9.278;2023-12-07T07:50:24;101139.25;;;4.72;100.00
38718;BME280;24468;52.128;9.278;2023-12-07T07:52:49;101139.88;;;4.94;100.00
38718;BME280;24468;52.128;9.278;2023-12-07T07:55:15;101137.38;;;4.80;100.00
38718;BME280;24468;52.128;9.278;2023-12-07T07:57:40;101132.69;;;4.99;100.00
38718;BME280;24468;52.128;9.278;2023-12-07T08:00:07;101140.69;;;5.01;100.00
38718;BME280;24468;52.128;9.278;2023-12-07T08:02:34;101134.41;;;5.05;100.00
38718;BME280;24468;52.128;9.278;2023-12-07T08:05:00;101132.66;;;5.02;100.00
38718;BME280;24468;52.128;9.278;2023-12-07T08:07:25;101133.69;;;4.89;100.00
38718;BME280;24468;52.128;9.278;2023-12-07T08:09:51;101140.56;;;5.10;100.00
38718;BME280;24468;52.128;9.278;2023-12-07T08:12:17;101140.75;;;4.95;100.00
38718;BME280;24468;52.128;9.278;2023-12-07T08:14:42;101136.97;;;5.12;100.00
38718;BME280;24468;52.128;9.278;2023-12-07T08:17:09;101143.41;;;4.98;100.00
38718;BME280;24468;52.128;9.278;2023-12-07T08:19:35;101143.47;;;4.90;100.00
38718;BME280;24468;52.128;9.278;2023-12-07T08:22:00;101145.31;;;4.86;100.00
38718;BME280;24468;52.128;9.278;2023-12-07T08:24:26;101142.25;;;5.17;100.00
38718;BME280;24468;52.128;9.278;2023-12-07T08:26:51;101142.91;;;5.34;100.00
38718;BME280;24468;52.128;9.278;2023-12-07T08:29:17;101133.72;;;5.57;100.00
38718;BME280;24468;52.128;9.278;2023-12-07T08:31:43;101139.91;;;5.59;100.00
38718;BME280;24468;52.128;9.278;2023-12-07T08:34:09;101132.84;;;5.53;100.00
38718;BME280;24468;52.128;9.278;2023-12-07T08:36:34;101142.63;;;5.56;100.00
38718;BME280;24468;52.128;9.278;2023-12-07T08:39:00;101139.81;;;5.67;100.00
38718;BME280;24468;52.128;9.278;2023-12-07T08:41:25;101147.00;;;5.63;100.00
38718;BME280;24468;52.128;9.278;2023-12-07T08:43:51;101146.50;;;5.32;100.00
38718;BME280;24468;52.128;9.278;2023-12-07T08:46:16;101144.63;;;5.42;100.00
38718;BME280;24468;52.128;9.278;2023-12-07T08:48:42;101141.94;;;5.40;100.00
38718;BME280;24468;52.128;9.278;2023-12-07T08:51:08;101143.75;;;5.40;100.00
38718;BME280;24468;52.128;9.278;2023-12-07T08:53:34;101138.66;;;5.20;100.00
38718;BME280;24468;52.128;9.278;2023-12-07T08:56:01;101137.44;;;5.45;100.00
38718;BME280;24468;52.128;9.278;2023-12-07T08:58:27;101146.38;;;5.44;100.00
38718;BME280;24468;52.128;9.278;2023-12-07T09:00:53;101152.97;;;5.19;100.00
38718;BME280;24468;52.128;9.278;2023-12-07T09:03:18;101153.38;;;4.83;100.00
38718;BME280;24468;52.128;9.278;2023-12-07T09:05:44;101155.38;;;5.39;100.00
38718;BME280;24468;52.128;9.278;2023-12-07T09:08:10;101152.09;;;5.82;100.00
38718;BME280;24468;52.128;9.278;2023-12-07T09:10:35;101159.88;;;5.35;100.00
38718;BME280;24468;52.128;9.278;2023-12-07T09:13:01;101163.84;;;5.70;100.00
38718;BME280;24468;52.128;9.278;2023-12-07T09:15:26;101162.97;;;5.69;100.00
38718;BME280;24468;52.128;9.278;2023-12-07T09:17:52;101163.84;;;5.70;100.00
38718;BME280;24468;52.128;9.278;2023-12-07T09:20:17;101166.75;;;5.54;100.00
38718;BME280;24468;52.128;9.278;2023-12-07T09:22:44;101169.25;;;5.68;100.00
38718;BME280;24468;52.128;9.278;2023-12-07T09:25:11;101169.94;;;5.81;100.00
38718;BME280;24468;52.128;9.278;2023-12-07T09:27:39;101170.06;;;5.73;100.00
38718;BME280;24468;52.128;9.278;2023-12-07T09:30:09;101171.34;;;6.08;100.00
38718;BME280;24468;52.128;9.278;2023-12-07T09:32:40;101159.09;;;5.90;100.00
38718;BME280;24468;52.128;9.278;2023-12-07T09:35:07;101167.22;;;5.84;100.00
38718;BME280;24468;52.128;9.278;2023-12-07T09:37:34;101157.22;;;5.98;100.00
38718;BME280;24468;52.128;9.278;2023-12-07T09:40:00;101154.22;;;6.17;100.00
38718;BME280;24468;52.128;9.278;2023-12-07T09:42:26;101159.44;;;6.26;100.00
38718;BME280;24468;52.128;9.278;2023-12-07T09:44:52;101152.88;;;6.44;100.00
38718;BME280;24468;52.128;9.278;2023-12-07T09:47:18;101152.97;;;6.38;100.00
38718;BME280;24468;52.128;9.278;2023-12-07T09:49:44;101154.09;;;6.26;100.00
38718;BME280;24468;52.128;9.278;2023-12-07T09:52:10;101153.34;;;6.16;100.00
38718;BME280;24468;52.128;9.278;2023-12-07T09:54:40;101151.28;;;6.32;100.00
38718;BME280;24468;52.128;9.278;2023-12-07T09:57:07;101146.50;;;6.50;100.00
38718;BME280;24468;52.128;9.278;2023-12-07T09:59:35;101158.75;;;6.15;100.00
38718;BME280;24468;52.128;9.278;2023-12-07T10:02:02;101160.22;;;6.33;100.00
38718;BME280;24468;52.128;9.278;2023-12-07T10:04:27;101157.63;;;6.28;100.00
38718;BME280;24468;52.128;9.278;2023-12-07T10:06:53;101158.91;;;6.57;100.00
38718;BME280;24468;52.128;9.278;2023-12-07T10:09:19;101165.03;;;6.63;100.00
38718;BME280;24468;52.128;9.278;2023-12-07T10:11:47;101160.19;;;6.34;100.00
38718;BME280;24468;52.128;9.278;2023-12-07T10:14:13;101158.22;;;5.87;100.00
38718;BME280;24468;52.128;9.278;2023-12-07T10:16:38;101154.56;;;6.50;100.00
38718;BME280;24468;52.128;9.278;2023-12-07T10:19:17;101158.91;;;6.55;100.00
38718;BME280;24468;52.128;9.278;2023-12-07T10:21:51;101151.66;;;6.62;100.00
38718;BME280;24468;52.128;9.278;2023-12-07T10:24:18;101151.09;;;6.91;100.00
38718;BME280;24468;52.128;9.278;2023-12-07T10:26:46;101148.72;;;6.76;100.00
38718;BME280;24468;52.128;9.278;2023-12-07T10:29:12;101146.16;;;6.70;100.00
38718;BME280;24468;52.128;9.278;2023-12-07T10:31:38;101138.41;;;6.99;100.00
38718;BME280;24468;52.128;9.278;2023-12-07T10:34:05;101144.44;;;7.12;100.00
38718;BME280;24468;52.128;9.278;2023-12-07T10:36:31;101132.94;;;7.05;100.00
38718;BME280;24468;52.128;9.278;2023-12-07T10:38:58;101136.66;;;7.00;100.00
38718;BME280;24468;52.128;9.278;2023-12-07T10:41:24;101131.34;;;6.97;100.00
38718;BME280;24468;52.128;9.278;2023-12-07T10:43:59;101135.78;;;6.98;100.00
38718;BME280;24468;52.128;9.278;2023-12-07T10:46:25;101144.81;;;6.45;100.00
38718;BME280;24468;52.128;9.278;2023-12-07T10:48:59;101129.91;;;6.29;100.00
38718;BME280;24468;52.128;9.278;2023-12-07T10:52:06;101129.34;;;6.60;100.00
38718;BME280;24468;52.128;9.278;2023-12-07T10:54:50;101122.94;;;6.68;100.00
38718;BME280;24468;52.128;9.278;2023-12-07T10:57:17;101117.03;;;6.96;100.00
38718;BME280;24468;52.128;9.278;2023-12-07T10:59:45;101106.22;;;6.56;100.00
38718;BME280;24468;52.128;9.278;2023-12-07T11:02:16;101108.56;;;6.73;100.00
38718;BME280;24468;52.128;9.278;2023-12-07T11:04:42;101104.56;;;6.94;100.00
38718;BME280;24468;52.128;9.278;2023-12-07T11:07:14;101096.84;;;6.77;100.00
38718;BME280;24468;52.128;9.278;2023-12-07T11:09:50;101102.59;;;6.58;100.00
38718;BME280;24468;52.128;9.278;2023-12-07T11:13:00;101086.34;;;7.09;100.00
38718;BME280;24468;52.128;9.278;2023-12-07T11:15:25;101091.81;;;6.61;100.00
38718;BME280;24468;52.128;9.278;2023-12-07T11:17:54;101097.16;;;7.06;100.00
38718;BME280;24468;52.128;9.278;2023-12-07T11:20:32;101085.06;;;7.27;100.00
38718;BME280;24468;52.128;9.278;2023-12-07T11:23:05;101091.19;;;6.92;100.00
38718;BME280;24468;52.128;9.278;2023-12-07T11:25:30;101088.66;;;6.84;100.00
38718;BME280;24468;52.128;9.278;2023-12-07T11:28:04;101085.97;;;7.28;100.00
38718;BME280;24468;52.128;9.278;2023-12-07T11:30:32;101080.38;;;6.52;100.00
38718;BME280;24468;52.128;9.278;2023-12-07T11:33:00;101082.50;;;7.23;100.00
38718;BME280;24468;52.128;9.278;2023-12-07T11:35:26;101079.88;;;6.76;100.00
38718;BME280;24468;52.128;9.278;2023-12-07T11:38:07;101078.03;;;6.33;100.00
38718;BME280;24468;52.128;9.278;2023-12-07T11:40:43;101077.13;;;6.81;100.00
38718;BME280;24468;52.128;9.278;2023-12-07T11:45:59;101086.13;;;6.30;100.00
38718;BME280;24468;52.128;9.278;2023-12-07T11:48:25;101084.72;;;6.09;100.00
38718;BME280;24468;52.128;9.278;2023-12-07T11:51:08;101080.69;;;6.80;100.00
38718;BME280;24468;52.128;9.278;2023-12-07T11:53:37;101070.38;;;7.03;100.00
38718;BME280;24468;52.128;9.278;2023-12-07T11:56:08;101069.59;;;6.98;100.00
38718;BME280;24468;52.128;9.278;2023-12-07T11:58:39;101065.28;;;7.33;100.00
38718;BME280;24468;52.128;9.278;2023-12-07T12:01:05;101062.22;;;7.48;100.00
38718;BME280;24468;52.128;9.278;2023-12-07T12:03:31;101064.72;;;7.56;100.00
38718;BME280;24468;52.128;9.278;2023-12-07T12:06:01;101055.03;;;6.68;100.00
38718;BME280;24468;52.128;9.278;2023-12-07T12:08:27;101063.94;;;7.12;100.00
38718;BME280;24468;52.128;9.278;2023-12-07T12:10:54;101051.75;;;6.97;100.00
38718;BME280;24468;52.128;9.278;2023-12-07T12:13:30;101058.47;;;7.55;100.00
38718;BME280;24468;52.128;9.278;2023-12-07T12:15:57;101049.91;;;7.77;100.00
38718;BME280;24468;52.128;9.278;2023-12-07T12:18:23;101048.41;;;7.26;100.00
38718;BME280;24468;52.128;9.278;2023-12-07T12:20:51;101056.03;;;7.45;100.00
38718;BME280;24468;52.128;9.278;2023-12-07T12:23:17;101048.31;;;7.29;100.00
38718;BME280;24468;52.128;9.278;2023-12-07T12:25:43;101041.34;;;7.60;100.00
38718;BME280;24468;52.128;9.278;2023-12-07T12:28:08;101038.50;;;7.30;100.00
38718;BME280;24468;52.128;9.278;2023-12-07T12:30:35;101038.59;;;7.25;100.00
38718;BME280;24468;52.128;9.278;2023-12-07T12:33:01;101035.88;;;7.66;100.00
38718;BME280;24468;52.128;9.278;2023-12-07T12:35:28;101037.31;;;7.79;100.00
38718;BME280;24468;52.128;9.278;2023-12-07T12:37:54;101041.59;;;7.50;100.00
38718;BME280;24468;52.128;9.278;2023-12-07T12:40:21;101033.72;;;7.43;100.00
38718;BME280;24468;52.128;9.278;2023-12-07T12:42:50;101018.19;;;7.55;100.00
38718;BME280;24468;52.128;9.278;2023-12-07T12:45:17;101014.66;;;7.89;100.00
38718;BME280;24468;52.128;9.278;2023-12-07T12:47:47;101009.94;;;7.99;100.00
38718;BME280;24468;52.128;9.278;2023-12-07T12:50:37;101013.88;;;7.86;100.00
38718;BME280;24468;52.128;9.278;2023-12-07T12:53:05;101010.59;;;7.37;100.00
38718;BME280;24468;52.128;9.278;2023-12-07T12:55:39;101015.41;;;7.60;100.00
38718;BME280;24468;52.128;9.278;2023-12-07T12:58:09;101013.28;;;7.73;100.00